sensor_id;sensor_type;location;lat;lon;timestamp;pressure;altitude;pressure_sealevel;temperature;humidity
44313;BME280;38833;51.142;-0.974;2023-07-13T00:02:31;99983.49;;;25.45;35.17
44313;BME280;38833;51.142;-0.974;2023-07-13T00:05:06;99986.18;;;25.44;35.21
44313;BME280;38833;51.142;-0.974;2023-07-13T00:07:39;99984.68;;;25.04;35.32
44313;BME280;38833;51.142;-0.974;2023-07-13T00:10:13;99985.76;;;25.41;35.21
44313;BME280;38833;51.142;-0.974;2023-07-13T00:12:46;99984.00;;;25.07;35.23
44313;BME280;38833;51.142;-0.974;2023-07-13T00:15:24;99984.21;;;24.99;35.32
44313;BME280;38833;51.142;-0.974;2023-07-13T00:17:58;99983.03;;;25.12;35.48
44313;BME280;38833;51.142;-0.974;2023-07-13T00:20:32;99983.18;;;24.89;35.40
44313;BME280;38833;51.142;-0.974;2023-07-13T00:23:05;99980.55;;;24.99;35.57
44313;BME280;38833;51.142;-0.974;2023-07-13T00:25:38;99982.46;;;24.97;35.52
44313;BME280;38833;51.142;-0.974;2023-07-13T00:28:12;99984.74;;;25.01;35.50
44313;BME280;38833;51.142;-0.974;2023-07-13T00:30:45;99985.17;;;24.90;35.56
44313;BME280;38833;51.142;-0.974;2023-07-13T00:33:18;99985.98;;;24.98;35.42
44313;BME280;38833;51.142;-0.974;2023-07-13T00:35:53;99983.62;;;24.72;35.79
44313;BME280;38833;51.142;-0.974;2023-07-13T00:38:27;99984.62;;;24.86;35.54
44313;BME280;38833;51.142;-0.974;2023-07-13T00:41:00;99985.14;;;24.84;35.55
44313;BME280;38833;51.142;-0.974;2023-07-13T00:43:34;99980.42;;;24.78;35.55
44313;BME280;38833;51.142;-0.974;2023-07-13T00:46:15;99980.62;;;24.88;35.71
44313;BME280;38833;51.142;-0.974;2023-07-13T00:48:49;99981.39;;;24.86;35.41
44313;BME280;38833;51.142;-0.974;2023-07-13T00:51:28;99981.15;;;24.63;35.68
44313;BME280;38833;51.142;-0.974;2023-07-13T00:54:06;99980.52;;;24.76;35.47
44313;BME280;38833;51.142;-0.974;2023-07-13T00:56:41;99981.00;;;24.77;35.42
44313;BME280;38833;51.142;-0.974;2023-07-13T00:59:17;99980.13;;;24.68;35.43
44313;BME280;38833;51.142;-0.974;2023-07-13T01:01:52;99981.50;;;24.60;35.52
44313;BME280;38833;51.142;-0.974;2023-07-13T01:04:26;99982.12;;;24.58;35.52
44313;BME280;38833;51.142;-0.974;2023-07-13T01:07:00;99979.43;;;24.64;35.44
44313;BME280;38833;51.142;-0.974;2023-07-13T01:09:33;99982.05;;;24.58;35.43
44313;BME280;38833;51.142;-0.974;2023-07-13T01:12:08;99981.56;;;24.58;35.36
44313;BME280;38833;51.142;-0.974;2023-07-13T01:14:41;99978.64;;;24.50;35.46
44313;BME280;38833;51.142;-0.974;2023-07-13T01:17:15;99982.17;;;24.68;35.20
44313;BME280;38833;51.142;-0.974;2023-07-13T01:19:48;99980.41;;;24.54;35.31
44313;BME280;38833;51.142;-0.974;2023-07-13T01:22:22;99980.40;;;24.59;35.22
44313;BME280;38833;51.142;-0.974;2023-07-13T01:24:55;99978.20;;;24.52;35.26
44313;BME280;38833;51.142;-0.974;2023-07-13T01:27:28;99979.99;;;24.55;35.19
44313;BME280;38833;51.142;-0.974;2023-07-13T01:30:03;99981.18;;;24.51;35.25
44313;BME280;38833;51.142;-0.974;2023-07-13T01:32:36;99981.54;;;24.51;35.17
44313;BME280;38833;51.142;-0.974;2023-07-13T01:35:09;99982.23;;;24.49;35.15
44313;BME280;38833;51.142;-0.974;2023-07-13T01:37:43;99982.15;;;24.48;35.15
44313;BME280;38833;51.142;-0.974;2023-07-13T01:40:16;99980.10;;;24.49;35.08
44313;BME280;38833;51.142;-0.974;2023-07-13T01:42:50;99982.86;;;24.48;35.09
44313;BME280;38833;51.142;-0.974;2023-07-13T01:45:23;99978.95;;;24.29;35.27
44313;BME280;38833;51.142;-0.974;2023-07-13T01:47:56;99981.26;;;24.49;34.99
44313;BME280;38833;51.142;-0.974;2023-07-13T01:50:30;99982.49;;;24.34;35.13
44313;BME280;38833;51.142;-0.974;2023-07-13T01:53:03;99978.14;;;24.36;35.08
44313;BME280;38833;51.142;-0.974;2023-07-13T01:55:37;99977.04;;;24.31;35.14
44313;BME280;38833;51.142;-0.974;2023-07-13T01:58:10;99975.97;;;24.27;35.20
44313;BME280;38833;51.142;-0.974;2023-07-13T02:00:44;99978.00;;;24.54;35.10
44313;BME280;38833;51.142;-0.974;2023-07-13T02:03:17;99980.65;;;24.33;35.05
44313;BME280;38833;51.142;-0.974;2023-07-13T02:05:50;99981.91;;;24.21;34.85
44313;BME280;38833;51.142;-0.974;2023-07-13T02:08:24;99977.79;;;24.23;35.17
44313;BME280;38833;51.142;-0.974;2023-07-13T02:10:57;99974.39;;;24.72;35.07
44313;BME280;38833;51.142;-0.974;2023-07-13T02:13:30;99971.82;;;24.17;35.18
44313;BME280;38833;51.142;-0.974;2023-07-13T02:16:04;99969.16;;;24.69;35.02
44313;BME280;38833;51.142;-0.974;2023-07-13T02:18:38;99975.20;;;24.00;35.33
44313;BME280;38833;51.142;-0.974;2023-07-13T02:21:11;99973.45;;;24.38;35.16
44313;BME280;38833;51.142;-0.974;2023-07-13T02:23:44;99973.45;;;24.30;35.14
44313;BME280;38833;51.142;-0.974;2023-07-13T02:26:18;99968.17;;;24.08;35.15
44313;BME280;38833;51.142;-0.974;2023-07-13T02:28:52;99968.27;;;24.07;35.16
44313;BME280;38833;51.142;-0.974;2023-07-13T02:31:25;99961.99;;;24.10;35.07
44313;BME280;38833;51.142;-0.974;2023-07-13T02:33:59;99960.72;;;24.38;35.01
44313;BME280;38833;51.142;-0.974;2023-07-13T02:36:32;99964.02;;;24.13;34.97
44313;BME280;38833;51.142;-0.974;2023-07-13T02:39:06;99963.29;;;24.14;34.93
44313;BME280;38833;51.142;-0.974;2023-07-13T02:41:40;99958.33;;;24.28;34.99
44313;BME280;38833;51.142;-0.974;2023-07-13T02:44:14;99956.71;;;24.16;34.82
44313;BME280;38833;51.142;-0.974;2023-07-13T02:46:48;99954.33;;;24.20;34.74
44313;BME280;38833;51.142;-0.974;2023-07-13T02:49:21;99953.80;;;24.25;34.98
44313;BME280;38833;51.142;-0.974;2023-07-13T02:51:55;99957.67;;;23.95;35.02
44313;BME280;38833;51.142;-0.974;2023-07-13T02:54:28;99959.44;;;23.97;34.98
44313;BME280;38833;51.142;-0.974;2023-07-13T02:57:02;99961.29;;;23.89;35.09
44313;BME280;38833;51.142;-0.974;2023-07-13T02:59:35;99961.14;;;23.94;34.98
44313;BME280;38833;51.142;-0.974;2023-07-13T03:02:09;99964.49;;;23.93;34.98
44313;BME280;38833;51.142;-0.974;2023-07-13T03:04:42;99964.33;;;24.32;35.40
44313;BME280;38833;51.142;-0.974;2023-07-13T03:07:16;99963.57;;;25.03;34.86
44313;BME280;38833;51.142;-0.974;2023-07-13T03:09:49;99965.94;;;24.82;35.27
44313;BME280;38833;51.142;-0.974;2023-07-13T03:12:26;99968.63;;;24.56;35.59
44313;BME280;38833;51.142;-0.974;2023-07-13T03:15:00;99964.72;;;24.83;35.46
44313;BME280;38833;51.142;-0.974;2023-07-13T03:17:34;99961.77;;;24.77;35.76
44313;BME280;38833;51.142;-0.974;2023-07-13T03:20:08;99963.70;;;24.39;36.07
44313;BME280;38833;51.142;-0.974;2023-07-13T03:22:42;99967.13;;;24.60;35.77
44313;BME280;38833;51.142;-0.974;2023-07-13T03:25:15;99968.80;;;24.55;35.93
44313;BME280;38833;51.142;-0.974;2023-07-13T03:27:49;99972.68;;;24.58;35.99
44313;BME280;38833;51.142;-0.974;2023-07-13T03:30:22;99974.97;;;24.56;36.04
44313;BME280;38833;51.142;-0.974;2023-07-13T03:32:55;99973.89;;;24.72;36.16
44313;BME280;38833;51.142;-0.974;2023-07-13T03:35:29;99976.92;;;24.49;36.27
44313;BME280;38833;51.142;-0.974;2023-07-13T03:38:02;99977.47;;;24.55;36.29
44313;BME280;38833;51.142;-0.974;2023-07-13T03:40:36;99980.64;;;24.63;36.23
44313;BME280;38833;51.142;-0.974;2023-07-13T03:43:09;99972.00;;;24.87;36.21
44313;BME280;38833;51.142;-0.974;2023-07-13T03:45:43;99971.58;;;24.81;36.30
44313;BME280;38833;51.142;-0.974;2023-07-13T03:48:17;99971.44;;;24.71;36.23
44313;BME280;38833;51.142;-0.974;2023-07-13T03:50:51;99976.79;;;24.96;36.21
44313;BME280;38833;51.142;-0.974;2023-07-13T03:53:24;99982.29;;;24.80;36.15
44313;BME280;38833;51.142;-0.974;2023-07-13T03:55:57;99989.72;;;24.86;36.01
44313;BME280;38833;51.142;-0.974;2023-07-13T03:58:32;99989.03;;;24.69;35.92
44313;BME280;38833;51.142;-0.974;2023-07-13T04:01:08;99986.58;;;24.93;36.01
44313;BME280;38833;51.142;-0.974;2023-07-13T04:03:42;99988.28;;;24.97;35.96
44313;BME280;38833;51.142;-0.974;2023-07-13T04:06:18;99990.31;;;25.04;35.86
44313;BME280;38833;51.142;-0.974;2023-07-13T04:08:53;99990.68;;;24.81;35.93
44313;BME280;38833;51.142;-0.974;2023-07-13T04:11:29;99990.23;;;24.98;35.73
44313;BME280;38833;51.142;-0.974;2023-07-13T04:14:03;99989.03;;;25.33;35.57
44313;BME280;38833;51.142;-0.974;2023-07-13T04:16:36;99996.13;;;25.34;35.62
44313;BME280;38833;51.142;-0.974;2023-07-13T04:19:10;99998.15;;;25.44;35.52
44313;BME280;38833;51.142;-0.974;2023-07-13T04:21:44;99998.75;;;25.40;35.51
44313;BME280;38833;51.142;-0.974;2023-07-13T04:24:17;99999.14;;;25.41;35.50
44313;BME280;38833;51.142;-0.974;2023-07-13T04:26:50;99999.16;;;25.15;35.61
44313;BME280;38833;51.142;-0.974;2023-07-13T04:29:24;99996.89;;;25.42;35.58
44313;BME280;38833;51.142;-0.974;2023-07-13T04:31:57;100002.77;;;24.92;35.54
44313;BME280;38833;51.142;-0.974;2023-07-13T04:34:31;100000.88;;;25.26;35.40
44313;BME280;38833;51.142;-0.974;2023-07-13T04:37:04;100003.20;;;25.23;35.45
44313;BME280;38833;51.142;-0.974;2023-07-13T04:39:38;100004.26;;;25.23;35.35
44313;BME280;38833;51.142;-0.974;2023-07-13T04:42:11;100005.28;;;25.39;35.52
44313;BME280;38833;51.142;-0.974;2023-07-13T04:44:48;100009.37;;;25.26;35.43
44313;BME280;38833;51.142;-0.974;2023-07-13T04:47:22;100010.27;;;25.56;35.37
44313;BME280;38833;51.142;-0.974;2023-07-13T04:49:55;100011.30;;;25.64;35.31
44313;BME280;38833;51.142;-0.974;2023-07-13T04:52:28;100010.22;;;25.53;35.17
44313;BME280;38833;51.142;-0.974;2023-07-13T04:55:02;100009.68;;;25.49;35.18
44313;BME280;38833;51.142;-0.974;2023-07-13T04:57:36;100012.47;;;25.48;35.21
44313;BME280;38833;51.142;-0.974;2023-07-13T05:00:10;100013.49;;;25.52;35.19
44313;BME280;38833;51.142;-0.974;2023-07-13T05:02:44;100012.61;;;25.38;35.17
44313;BME280;38833;51.142;-0.974;2023-07-13T05:05:17;100014.47;;;25.98;34.72
44313;BME280;38833;51.142;-0.974;2023-07-13T05:07:51;100016.72;;;25.57;35.28
44313;BME280;38833;51.142;-0.974;2023-07-13T05:10:24;100018.74;;;25.30;35.30
44313;BME280;38833;51.142;-0.974;2023-07-13T05:12:59;100019.71;;;25.72;35.39
44313;BME280;38833;51.142;-0.974;2023-07-13T05:15:33;100021.72;;;25.25;35.37
44313;BME280;38833;51.142;-0.974;2023-07-13T05:18:06;100024.19;;;25.76;35.38
44313;BME280;38833;51.142;-0.974;2023-07-13T05:20:40;100022.99;;;25.61;35.26
44313;BME280;38833;51.142;-0.974;2023-07-13T05:23:14;100026.81;;;25.54;35.11
44313;BME280;38833;51.142;-0.974;2023-07-13T05:25:47;100030.90;;;25.78;35.06
44313;BME280;38833;51.142;-0.974;2023-07-13T05:28:21;100030.11;;;25.53;35.17
44313;BME280;38833;51.142;-0.974;2023-07-13T05:30:54;100030.44;;;25.64;35.32
44313;BME280;38833;51.142;-0.974;2023-07-13T05:33:28;100031.16;;;25.57;35.44
44313;BME280;38833;51.142;-0.974;2023-07-13T05:36:01;100033.58;;;25.24;35.62
44313;BME280;38833;51.142;-0.974;2023-07-13T05:38:35;100038.57;;;25.53;35.55
44313;BME280;38833;51.142;-0.974;2023-07-13T05:41:08;100040.29;;;25.80;35.58
44313;BME280;38833;51.142;-0.974;2023-07-13T05:43:42;100041.48;;;25.93;34.61
44313;BME280;38833;51.142;-0.974;2023-07-13T05:46:15;100043.88;;;25.47;34.98
44313;BME280;38833;51.142;-0.974;2023-07-13T05:48:49;100048.86;;;25.42;35.02
44313;BME280;38833;51.142;-0.974;2023-07-13T05:51:22;100053.88;;;25.56;34.62
44313;BME280;38833;51.142;-0.974;2023-07-13T05:53:55;100059.03;;;25.50;34.75
44313;BME280;38833;51.142;-0.974;2023-07-13T05:56:29;100060.66;;;26.07;34.34
44313;BME280;38833;51.142;-0.974;2023-07-13T05:59:02;100063.95;;;26.05;34.54
44313;BME280;38833;51.142;-0.974;2023-07-13T06:01:36;100063.76;;;25.97;34.68
44313;BME280;38833;51.142;-0.974;2023-07-13T06:04:09;100064.33;;;25.57;35.08
44313;BME280;38833;51.142;-0.974;2023-07-13T06:06:42;100067.29;;;25.27;35.22
44313;BME280;38833;51.142;-0.974;2023-07-13T06:09:16;100071.43;;;25.42;34.98
44313;BME280;38833;51.142;-0.974;2023-07-13T06:11:49;100074.28;;;25.70;34.96
44313;BME280;38833;51.142;-0.974;2023-07-13T06:14:23;100075.49;;;25.68;35.07
44313;BME280;38833;51.142;-0.974;2023-07-13T06:16:56;100077.96;;;25.74;34.86
44313;BME280;38833;51.142;-0.974;2023-07-13T06:19:29;100083.19;;;25.76;34.93
44313;BME280;38833;51.142;-0.974;2023-07-13T06:22:03;100081.81;;;25.77;34.93
44313;BME280;38833;51.142;-0.974;2023-07-13T06:24:37;100084.45;;;25.63;35.11
44313;BME280;38833;51.142;-0.974;2023-07-13T06:27:11;100084.10;;;25.19;35.77
44313;BME280;38833;51.142;-0.974;2023-07-13T06:29:45;100088.73;;;25.18;35.98
44313;BME280;38833;51.142;-0.974;2023-07-13T06:32:18;100092.62;;;25.41;35.88
44313;BME280;38833;51.142;-0.974;2023-07-13T06:34:52;100098.10;;;25.47;35.84
44313;BME280;38833;51.142;-0.974;2023-07-13T06:37:25;100098.12;;;25.51;35.90
44313;BME280;38833;51.142;-0.974;2023-07-13T06:39:58;100104.61;;;25.65;35.89
44313;BME280;38833;51.142;-0.974;2023-07-13T06:42:32;100108.28;;;25.26;36.17
44313;BME280;38833;51.142;-0.974;2023-07-13T06:45:06;100109.59;;;25.25;36.22
44313;BME280;38833;51.142;-0.974;2023-07-13T06:47:40;100114.58;;;25.45;36.05
44313;BME280;38833;51.142;-0.974;2023-07-13T06:50:13;100112.19;;;25.77;36.12
44313;BME280;38833;51.142;-0.974;2023-07-13T06:52:46;100111.58;;;25.47;36.23
44313;BME280;38833;51.142;-0.974;2023-07-13T06:55:20;100116.90;;;25.67;36.05
44313;BME280;38833;51.142;-0.974;2023-07-13T06:57:54;100117.68;;;25.72;36.13
44313;BME280;38833;51.142;-0.974;2023-07-13T07:00:27;100120.49;;;25.90;36.35
44313;BME280;38833;51.142;-0.974;2023-07-13T07:03:00;100125.97;;;25.72;36.21
44313;BME280;38833;51.142;-0.974;2023-07-13T07:05:34;100126.94;;;25.75;36.24
44313;BME280;38833;51.142;-0.974;2023-07-13T07:08:08;100131.30;;;25.83;36.14
44313;BME280;38833;51.142;-0.974;2023-07-13T07:10:42;100130.96;;;25.84;36.15
44313;BME280;38833;51.142;-0.974;2023-07-13T07:13:15;100133.54;;;25.57;36.23
44313;BME280;38833;51.142;-0.974;2023-07-13T07:15:50;100133.51;;;25.93;35.78
44313;BME280;38833;51.142;-0.974;2023-07-13T07:18:24;100139.60;;;26.02;35.70
44313;BME280;38833;51.142;-0.974;2023-07-13T07:20:57;100141.26;;;25.99;35.22
44313;BME280;38833;51.142;-0.974;2023-07-13T07:23:30;100144.84;;;25.54;35.68
44313;BME280;38833;51.142;-0.974;2023-07-13T07:26:04;100148.02;;;25.67;35.13
44313;BME280;38833;51.142;-0.974;2023-07-13T07:28:38;100155.33;;;25.77;35.58
44313;BME280;38833;51.142;-0.974;2023-07-13T07:31:12;100154.91;;;25.74;34.93
44313;BME280;38833;51.142;-0.974;2023-07-13T07:33:45;100154.20;;;25.81;35.22
44313;BME280;38833;51.142;-0.974;2023-07-13T07:36:18;100152.42;;;25.92;35.07
44313;BME280;38833;51.142;-0.974;2023-07-13T07:38:52;100155.93;;;25.96;34.72
44313;BME280;38833;51.142;-0.974;2023-07-13T07:41:25;100159.42;;;25.79;35.55
44313;BME280;38833;51.142;-0.974;2023-07-13T07:43:58;100170.07;;;25.02;35.53
44313;BME280;38833;51.142;-0.974;2023-07-13T07:46:32;100174.49;;;24.30;37.20
44313;BME280;38833;51.142;-0.974;2023-07-13T07:49:05;100180.36;;;24.24;37.71
44313;BME280;38833;51.142;-0.974;2023-07-13T07:51:39;100181.29;;;24.25;37.26
44313;BME280;38833;51.142;-0.974;2023-07-13T07:54:12;100182.29;;;24.07;37.76
44313;BME280;38833;51.142;-0.974;2023-07-13T07:56:46;100178.86;;;24.56;35.58
44313;BME280;38833;51.142;-0.974;2023-07-13T07:59:19;100180.70;;;24.68;35.52
44313;BME280;38833;51.142;-0.974;2023-07-13T08:01:53;100183.83;;;24.61;35.81
44313;BME280;38833;51.142;-0.974;2023-07-13T08:04:26;100182.65;;;24.67;35.35
44313;BME280;38833;51.142;-0.974;2023-07-13T08:06:59;100188.51;;;24.54;35.53
44313;BME280;38833;51.142;-0.974;2023-07-13T08:09:33;100185.57;;;24.31;36.30
44313;BME280;38833;51.142;-0.974;2023-07-13T08:12:07;100182.56;;;24.79;35.76
44313;BME280;38833;51.142;-0.974;2023-07-13T08:14:40;100188.74;;;24.72;36.03
44313;BME280;38833;51.142;-0.974;2023-07-13T08:17:14;100187.73;;;24.81;35.92
44313;BME280;38833;51.142;-0.974;2023-07-13T08:19:47;100187.21;;;24.60;36.19
44313;BME280;38833;51.142;-0.974;2023-07-13T08:22:21;100178.43;;;24.56;36.01
44313;BME280;38833;51.142;-0.974;2023-07-13T08:24:54;100177.96;;;24.53;35.88
44313;BME280;38833;51.142;-0.974;2023-07-13T08:27:28;100186.10;;;23.99;36.11
44313;BME280;38833;51.142;-0.974;2023-07-13T08:30:03;100187.57;;;23.95;36.24
44313;BME280;38833;51.142;-0.974;2023-07-13T08:32:36;100186.94;;;24.15;36.82
44313;BME280;38833;51.142;-0.974;2023-07-13T08:35:10;100179.60;;;24.21;36.59
44313;BME280;38833;51.142;-0.974;2023-07-13T08:37:43;100173.42;;;24.73;36.11
44313;BME280;38833;51.142;-0.974;2023-07-13T08:40:18;100176.65;;;24.78;36.14
44313;BME280;38833;51.142;-0.974;2023-07-13T08:42:55;100175.12;;;25.08;36.04
44313;BME280;38833;51.142;-0.974;2023-07-13T08:45:37;100175.71;;;25.06;36.21
44313;BME280;38833;51.142;-0.974;2023-07-13T08:48:17;100171.78;;;25.00;36.62
44313;BME280;38833;51.142;-0.974;2023-07-13T08:50:58;100175.71;;;25.11;36.11
44313;BME280;38833;51.142;-0.974;2023-07-13T08:53:37;100172.75;;;25.17;36.08
44313;BME280;38833;51.142;-0.974;2023-07-13T08:56:17;100174.88;;;25.41;36.33
44313;BME280;38833;51.142;-0.974;2023-07-13T08:58:56;100170.07;;;25.42;35.91
44313;BME280;38833;51.142;-0.974;2023-07-13T09:01:39;100169.54;;;25.38;36.13
44313;BME280;38833;51.142;-0.974;2023-07-13T09:04:21;100169.32;;;25.56;36.14
44313;BME280;38833;51.142;-0.974;2023-07-13T09:07:01;100166.93;;;25.53;35.89
44313;BME280;38833;51.142;-0.974;2023-07-13T09:09:46;100166.13;;;25.74;36.27
44313;BME280;38833;51.142;-0.974;2023-07-13T09:12:30;100160.11;;;25.73;35.94
44313;BME280;38833;51.142;-0.974;2023-07-13T09:15:23;100162.36;;;26.15;35.60
44313;BME280;38833;51.142;-0.974;2023-07-13T09:18:02;100165.31;;;26.05;35.79
44313;BME280;38833;51.142;-0.974;2023-07-13T09:20:42;100166.24;;;25.98;36.01
44313;BME280;38833;51.142;-0.974;2023-07-13T09:23:21;100171.52;;;26.32;35.60
44313;BME280;38833;51.142;-0.974;2023-07-13T09:26:00;100168.48;;;26.28;35.79
44313;BME280;38833;51.142;-0.974;2023-07-13T09:28:40;100167.58;;;26.02;35.77
44313;BME280;38833;51.142;-0.974;2023-07-13T09:31:17;100168.00;;;26.33;35.48
44313;BME280;38833;51.142;-0.974;2023-07-13T09:33:52;100166.06;;;25.84;35.74
44313;BME280;38833;51.142;-0.974;2023-07-13T09:36:28;100165.25;;;26.51;35.55
44313;BME280;38833;51.142;-0.974;2023-07-13T09:39:04;100162.49;;;26.49;35.65
44313;BME280;38833;51.142;-0.974;2023-07-13T09:41:45;100164.21;;;26.41;35.43
44313;BME280;38833;51.142;-0.974;2023-07-13T09:44:28;100166.46;;;26.27;35.35
44313;BME280;38833;51.142;-0.974;2023-07-13T09:47:03;100165.81;;;26.23;35.41
44313;BME280;38833;51.142;-0.974;2023-07-13T09:49:37;100162.38;;;26.54;35.37
44313;BME280;38833;51.142;-0.974;2023-07-13T09:52:13;100165.50;;;26.62;35.24
44313;BME280;38833;51.142;-0.974;2023-07-13T09:54:49;100168.42;;;26.63;35.22
44313;BME280;38833;51.142;-0.974;2023-07-13T09:57:24;100166.82;;;26.69;35.37
44313;BME280;38833;51.142;-0.974;2023-07-13T09:59:58;100166.44;;;26.49;35.18
44313;BME280;38833;51.142;-0.974;2023-07-13T10:02:33;100164.20;;;26.93;35.07
44313;BME280;38833;51.142;-0.974;2023-07-13T10:05:14;100169.78;;;26.77;34.97
44313;BME280;38833;51.142;-0.974;2023-07-13T10:07:48;100169.28;;;27.09;35.18
44313;BME280;38833;51.142;-0.974;2023-07-13T10:10:22;100170.45;;;26.92;35.02
44313;BME280;38833;51.142;-0.974;2023-07-13T10:12:56;100167.94;;;26.74;35.06
44313;BME280;38833;51.142;-0.974;2023-07-13T10:15:29;100165.92;;;27.10;35.15
44313;BME280;38833;51.142;-0.974;2023-07-13T10:18:03;100165.02;;;26.83;35.00
44313;BME280;38833;51.142;-0.974;2023-07-13T10:20:37;100163.65;;;26.95;34.92
44313;BME280;38833;51.142;-0.974;2023-07-13T10:23:15;100164.81;;;27.03;34.78
44313;BME280;38833;51.142;-0.974;2023-07-13T10:25:55;100171.98;;;26.90;35.05
44313;BME280;38833;51.142;-0.974;2023-07-13T10:28:33;100174.66;;;27.39;34.97
44313;BME280;38833;51.142;-0.974;2023-07-13T10:31:14;100176.73;;;27.02;34.87
44313;BME280;38833;51.142;-0.974;2023-07-13T10:33:48;100188.18;;;27.16;35.09
44313;BME280;38833;51.142;-0.974;2023-07-13T10:36:31;100197.98;;;26.87;35.12
44313;BME280;38833;51.142;-0.974;2023-07-13T10:39:07;100196.25;;;26.84;35.37
44313;BME280;38833;51.142;-0.974;2023-07-13T10:41:46;100194.53;;;26.96;35.63
44313;BME280;38833;51.142;-0.974;2023-07-13T10:44:24;100195.44;;;26.82;35.69
44313;BME280;38833;51.142;-0.974;2023-07-13T10:46:59;100193.33;;;27.36;33.80
44313;BME280;38833;51.142;-0.974;2023-07-13T10:49:34;100197.76;;;27.34;34.16
44313;BME280;38833;51.142;-0.974;2023-07-13T10:52:41;100196.14;;;27.48;34.16
44313;BME280;38833;51.142;-0.974;2023-07-13T10:55:37;100195.70;;;26.94;35.16
44313;BME280;38833;51.142;-0.974;2023-07-13T10:58:18;100189.26;;;27.05;35.19
44313;BME280;38833;51.142;-0.974;2023-07-13T11:01:00;100186.33;;;26.29;36.59
44313;BME280;38833;51.142;-0.974;2023-07-13T11:03:37;100181.86;;;26.52;36.57
44313;BME280;38833;51.142;-0.974;2023-07-13T11:06:15;100183.18;;;26.60;36.55
44313;BME280;38833;51.142;-0.974;2023-07-13T11:08:54;100183.43;;;26.47;36.57
44313;BME280;38833;51.142;-0.974;2023-07-13T11:11:37;100177.86;;;27.29;36.37
44313;BME280;38833;51.142;-0.974;2023-07-13T11:14:28;100174.94;;;27.47;36.01
44313;BME280;38833;51.142;-0.974;2023-07-13T11:17:33;100178.97;;;27.31;35.99
44313;BME280;38833;51.142;-0.974;2023-07-13T11:20:22;100179.08;;;27.30;35.95
44313;BME280;38833;51.142;-0.974;2023-07-13T11:23:17;100181.18;;;27.40;35.98
44313;BME280;38833;51.142;-0.974;2023-07-13T11:25:51;100179.79;;;27.38;36.21
44313;BME280;38833;51.142;-0.974;2023-07-13T11:28:26;100176.85;;;27.23;36.23
44313;BME280;38833;51.142;-0.974;2023-07-13T11:31:03;100175.39;;;27.46;35.96
44313;BME280;38833;51.142;-0.974;2023-07-13T11:33:56;100177.13;;;27.89;35.79
44313;BME280;38833;51.142;-0.974;2023-07-13T11:36:35;100176.21;;;27.83;35.60
44313;BME280;38833;51.142;-0.974;2023-07-13T11:39:21;100172.16;;;28.27;35.31
44313;BME280;38833;51.142;-0.974;2023-07-13T11:41:58;100168.08;;;27.91;35.68
44313;BME280;38833;51.142;-0.974;2023-07-13T11:44:34;100167.78;;;27.89;35.67
44313;BME280;38833;51.142;-0.974;2023-07-13T11:47:10;100169.43;;;28.10;35.72
44313;BME280;38833;51.142;-0.974;2023-07-13T11:49:47;100171.72;;;27.71;36.17
44313;BME280;38833;51.142;-0.974;2023-07-13T11:52:23;100170.15;;;27.93;35.72
44313;BME280;38833;51.142;-0.974;2023-07-13T11:55:01;100163.37;;;28.14;35.65
44313;BME280;38833;51.142;-0.974;2023-07-13T11:57:47;100161.75;;;28.13;35.67
44313;BME280;38833;51.142;-0.974;2023-07-13T12:00:27;100160.02;;;28.00;35.43
44313;BME280;38833;51.142;-0.974;2023-07-13T12:03:02;100156.47;;;28.22;35.65
44313;BME280;38833;51.142;-0.974;2023-07-13T12:05:36;100156.55;;;28.57;35.36
44313;BME280;38833;51.142;-0.974;2023-07-13T12:08:10;100155.95;;;28.62;35.22
44313;BME280;38833;51.142;-0.974;2023-07-13T12:10:43;100156.94;;;28.07;35.24
44313;BME280;38833;51.142;-0.974;2023-07-13T12:13:17;100155.99;;;28.13;35.30
44313;BME280;38833;51.142;-0.974;2023-07-13T12:15:50;100159.36;;;28.66;35.48
44313;BME280;38833;51.142;-0.974;2023-07-13T12:18:29;100160.33;;;28.53;35.42
44313;BME280;38833;51.142;-0.974;2023-07-13T12:21:03;100165.64;;;28.24;35.37
44313;BME280;38833;51.142;-0.974;2023-07-13T12:23:36;100159.96;;;28.63;35.19
44313;BME280;38833;51.142;-0.974;2023-07-13T12:26:13;100161.81;;;28.83;35.29
44313;BME280;38833;51.142;-0.974;2023-07-13T12:28:49;100156.91;;;28.24;35.34
44313;BME280;38833;51.142;-0.974;2023-07-13T12:31:29;100159.66;;;28.75;34.25
44313;BME280;38833;51.142;-0.974;2023-07-13T12:34:08;100157.35;;;27.89;33.93
44313;BME280;38833;51.142;-0.974;2023-07-13T12:36:47;100152.17;;;28.08;33.67
44313;BME280;38833;51.142;-0.974;2023-07-13T12:39:23;100147.79;;;27.95;34.16
44313;BME280;38833;51.142;-0.974;2023-07-13T12:42:16;100141.67;;;27.67;34.47
44313;BME280;38833;51.142;-0.974;2023-07-13T12:44:53;100146.27;;;27.67;34.45
44313;BME280;38833;51.142;-0.974;2023-07-13T12:47:28;100145.66;;;27.55;34.64
44313;BME280;38833;51.142;-0.974;2023-07-13T12:50:03;100146.33;;;27.74;34.60
44313;BME280;38833;51.142;-0.974;2023-07-13T12:52:37;100144.43;;;27.69;34.57
44313;BME280;38833;51.142;-0.974;2023-07-13T12:55:14;100139.61;;;27.65;34.53
44313;BME280;38833;51.142;-0.974;2023-07-13T12:57:51;100139.20;;;27.29;34.84
44313;BME280;38833;51.142;-0.974;2023-07-13T13:00:28;100144.84;;;27.66;34.37
44313;BME280;38833;51.142;-0.974;2023-07-13T13:03:05;100154.96;;;27.87;34.61
44313;BME280;38833;51.142;-0.974;2023-07-13T13:05:39;100146.45;;;27.28;34.98
44313;BME280;38833;51.142;-0.974;2023-07-13T13:08:14;100148.70;;;27.62;34.82
44313;BME280;38833;51.142;-0.974;2023-07-13T13:10:47;100149.05;;;28.06;34.76
44313;BME280;38833;51.142;-0.974;2023-07-13T13:13:21;100148.06;;;28.17;34.49
44313;BME280;38833;51.142;-0.974;2023-07-13T13:15:54;100146.99;;;28.13;34.71
44313;BME280;38833;51.142;-0.974;2023-07-13T13:18:29;100149.57;;;27.90;34.97
44313;BME280;38833;51.142;-0.974;2023-07-13T13:21:03;100144.39;;;28.53;34.46
44313;BME280;38833;51.142;-0.974;2023-07-13T13:23:36;100143.62;;;28.43;34.27
44313;BME280;38833;51.142;-0.974;2023-07-13T13:26:11;100145.07;;;29.06;34.32